»·PEaware :: N608CD KGEG-KHQM

N608CD :: KGEG-KHQM

FLIGHT INFORMATION

Flight Status: Arrived
Operator: Privately registered:
United States
More flights under this callsign
Pilot: Daniel L. (27195)
Aircraft: CESSNA T210 TURBO CENTURION
(T210)
More flights by this aircraft type
Origin: KGEG Spokane Intl
United States
Destination: KHQM Bowerman
United States
More flights between these airports :: More routes between these airports
Route: DIRECT
File this flight plan on PilotEdge
Remarks: Leg 7, Alphabet Challenge Washington Edition
Altitude:
(Current/Filed)
6,500ft
Speed:
(Current/Filed)
150kts
Departed: 18-May-20 04:03 PM
Arrived: 18-May-20 05:52 PM
Distance/Time
Traveled:
263nm/1:49
Distance/Time
To Go:
Arrived

Flight Plot

Page will automatically refresh every two minutes.

Flight plan parsing failed; only flown route is shown


Map Options




Map Legend


Flown Route
Filed Route
Departure Airport
Arrival Airport
Navaid (VOR, NDB)
Fix

Horizontal Profiles

Position Reports

Time Latitude Longitude Heading Altitude Ground
Speed
18-May-20 15:36 47.625799 -117.535161 217 2353ft 0kts
18-May-20 15:37 47.625799 -117.535161 217 2353ft 0kts
18-May-20 15:38 47.625799 -117.535161 217 2353ft 0kts
18-May-20 15:39 47.625800 -117.535160 217 2353ft 0kts
18-May-20 15:40 47.623773 -117.524486 269 2352ft 0kts
18-May-20 15:41 47.623773 -117.524486 269 2352ft 0kts
18-May-20 15:42 47.623773 -117.524486 269 2352ft 0kts
18-May-20 15:43 47.623773 -117.524486 269 2352ft 0kts
18-May-20 15:44 47.623773 -117.524486 269 2352ft 0kts
18-May-20 15:45 47.623773 -117.524486 269 2352ft 0kts
18-May-20 15:46 47.623773 -117.524486 269 2352ft 0kts
18-May-20 15:47 47.623773 -117.524486 269 2352ft 0kts
18-May-20 15:48 47.623773 -117.524486 269 2352ft 0kts
18-May-20 15:49 47.623773 -117.524486 269 2352ft 0kts
18-May-20 15:50 47.623773 -117.524486 269 2352ft 0kts
18-May-20 15:51 47.623773 -117.524486 269 2352ft 0kts
18-May-20 15:52 47.623773 -117.524486 269 2352ft 0kts
18-May-20 15:53 47.623773 -117.524486 269 2352ft 0kts
18-May-20 15:54 47.623773 -117.524486 269 2352ft 0kts
18-May-20 15:55 47.623773 -117.524486 269 2352ft 0kts
18-May-20 15:56 47.623773 -117.524486 269 2352ft 0kts
18-May-20 15:57 47.623777 -117.524541 278 2352ft 4kts
18-May-20 15:58 47.626269 -117.522252 44 2342ft 25kts
18-May-20 15:59 47.628870 -117.518288 49 2328ft 0kts
18-May-20 16:00 47.628886 -117.518261 48 2328ft 3kts
18-May-20 16:01 47.630387 -117.517258 319 2321ft 0kts
18-May-20 16:02 47.629335 -117.521166 225 2330ft 65kts
18-May-20 16:03 47.616623 -117.554622 260 3464ft 95kts
18-May-20 16:04 47.613118 -117.609082 263 4487ft 127kts
18-May-20 16:05 47.608024 -117.680424 263 4500ft 153kts
18-May-20 16:06 47.601888 -117.763155 263 4500ft 155kts
18-May-20 16:07 47.595947 -117.843512 263 4499ft 155kts
18-May-20 16:08 47.590101 -117.923496 264 4499ft 156kts
18-May-20 16:09 47.583984 -118.004199 262 4499ft 159kts
18-May-20 16:10 47.577431 -118.089620 262 4499ft 159kts
18-May-20 16:11 47.571027 -118.173182 264 5368ft 144kts
18-May-20 16:12 47.565463 -118.243586 262 6506ft 144kts
18-May-20 16:13 47.559310 -118.324035 262 6484ft 163kts
18-May-20 16:14 47.553781 -118.394040 258 6501ft 165kts
18-May-20 16:15 47.548560 -118.458162 258 6495ft 158kts
18-May-20 16:16 47.543231 -118.520303 260 6491ft 157kts
18-May-20 16:17 47.538004 -118.583228 253 6506ft 155kts
18-May-20 16:18 47.508121 -118.623630 213 6492ft 151kts
18-May-20 16:19 47.474100 -118.658173 220 6498ft 150kts
18-May-20 16:20 47.453121 -118.712124 249 6497ft 156kts
18-May-20 16:21 47.443043 -118.775663 255 6505ft 158kts
18-May-20 16:22 47.433701 -118.840409 254 6496ft 155kts
18-May-20 16:23 47.423795 -118.904907 255 6497ft 157kts
18-May-20 16:24 47.414597 -118.967424 254 6479ft 157kts
18-May-20 16:25 47.405723 -119.028667 254 6470ft 157kts
18-May-20 16:27 47.396827 -119.087477 254 6473ft 157kts
18-May-20 16:28 47.387366 -119.146404 255 6491ft 159kts
18-May-20 16:29 47.379233 -119.205793 255 6475ft 159kts
18-May-20 16:30 47.370263 -119.264395 256 6485ft 159kts
18-May-20 16:31 47.361600 -119.323122 255 6492ft 158kts
18-May-20 16:32 47.351247 -119.385510 256 6486ft 161kts
18-May-20 16:33 47.341941 -119.449626 255 6486ft 161kts
18-May-20 16:34 47.331540 -119.514662 256 6489ft 159kts
18-May-20 16:35 47.321761 -119.578081 256 6487ft 161kts
18-May-20 16:36 47.312484 -119.637763 255 6474ft 163kts
18-May-20 16:37 47.303275 -119.697664 254 6476ft 162kts
18-May-20 16:38 47.293519 -119.757993 254 6472ft 161kts
18-May-20 16:39 47.283748 -119.823205 253 6494ft 162kts
18-May-20 16:40 47.273677 -119.885230 256 6486ft 162kts
18-May-20 16:41 47.263940 -119.946209 252 6481ft 164kts
18-May-20 16:42 47.254605 -120.006066 256 6499ft 155kts
18-May-20 16:42 47.247251 -120.052296 256 6979ft 138kts
18-May-20 16:44 47.236160 -120.121476 256 6991ft 154kts
18-May-20 16:45 47.225908 -120.185522 256 6851ft 155kts
18-May-20 16:45 47.217277 -120.238884 256 6733ft 157kts
18-May-20 16:46 47.207712 -120.297863 256 7038ft 149kts
18-May-20 16:47 47.197762 -120.359308 256 7037ft 156kts
18-May-20 16:48 47.187557 -120.422053 257 7037ft 155kts
18-May-20 16:49 47.177314 -120.484859 256 7036ft 158kts
18-May-20 16:50 47.166899 -120.548108 256 7036ft 158kts
18-May-20 16:51 47.156439 -120.611579 257 7036ft 159kts
18-May-20 16:52 47.145952 -120.675006 256 7036ft 158kts
18-May-20 16:53 47.135518 -120.738032 256 7036ft 158kts
18-May-20 16:54 47.125010 -120.801003 256 7037ft 158kts
18-May-20 16:55 47.114396 -120.864231 256 7036ft 157kts
18-May-20 16:56 47.103819 -120.927360 256 7036ft 157kts
18-May-20 16:57 47.093453 -120.988639 257 7041ft 157kts
18-May-20 16:58 47.083088 -121.050182 257 7058ft 156kts
18-May-20 16:59 47.072523 -121.112422 257 7076ft 157kts
18-May-20 17:00 47.061847 -121.175055 257 7091ft 156kts
18-May-20 17:01 47.051110 -121.237968 257 7100ft 156kts
18-May-20 17:02 47.040274 -121.301076 257 7100ft 156kts
18-May-20 17:03 47.029328 -121.364625 257 7101ft 159kts
18-May-20 17:04 47.018162 -121.429293 257 7101ft 158kts
18-May-20 17:05 47.007158 -121.492690 257 7100ft 157kts
18-May-20 17:06 46.996445 -121.554214 258 7100ft 155kts
18-May-20 17:07 46.985564 -121.616528 258 7100ft 157kts
18-May-20 17:08 46.974739 -121.678255 257 7100ft 156kts
18-May-20 17:09 46.963861 -121.740146 257 7101ft 155kts
18-May-20 17:10 46.952873 -121.802358 257 7101ft 155kts
18-May-20 17:11 46.941836 -121.864654 257 7102ft 158kts
18-May-20 17:12 46.931046 -121.925397 257 7094ft 147kts
18-May-20 17:13 46.921405 -121.979617 258 6639ft 133kts
18-May-20 17:14 46.912076 -122.031913 258 6610ft 144kts
18-May-20 17:15 46.901976 -122.088137 257 6608ft 152kts
18-May-20 17:16 46.892026 -122.143398 257 6607ft 153kts
18-May-20 17:17 46.881774 -122.200033 257 6608ft 153kts
18-May-20 17:18 46.871872 -122.258206 268 6607ft 152kts
18-May-20 17:19 46.875292 -122.312194 277 6188ft 131kts
18-May-20 17:20 46.878500 -122.362675 277 5498ft 127kts
18-May-20 17:21 46.881820 -122.413795 277 4793ft 126kts
18-May-20 17:22 46.885328 -122.468049 276 4613ft 145kts
18-May-20 17:23 46.889265 -122.529188 276 4609ft 151kts
18-May-20 17:24 46.893181 -122.591253 276 4608ft 151kts
18-May-20 17:25 46.896779 -122.647284 276 4352ft 125kts
18-May-20 17:26 46.900046 -122.698131 276 3743ft 123kts
18-May-20 17:27 46.903019 -122.746447 276 3321ft 115kts
18-May-20 17:28 46.906187 -122.797945 275 3052ft 152kts
18-May-20 17:29 46.910001 -122.860057 275 3009ft 150kts
18-May-20 17:30 46.913734 -122.921243 275 3011ft 150kts
18-May-20 17:31 46.917673 -122.982333 277 3016ft 149kts
18-May-20 17:32 46.921231 -123.043274 275 3021ft 149kts
18-May-20 17:33 46.924746 -123.104203 275 3025ft 149kts
18-May-20 17:34 46.928352 -123.165241 275 3027ft 149kts
18-May-20 17:35 46.931950 -123.225889 275 3030ft 151kts
18-May-20 17:36 46.935561 -123.287405 275 2480ft 141kts
18-May-20 17:37 46.938436 -123.339188 275 2124ft 112kts
18-May-20 17:38 46.943875 -123.385003 281 2127ft 114kts
18-May-20 17:39 46.948949 -123.431216 278 2127ft 115kts
18-May-20 17:40 46.953078 -123.477961 278 2127ft 115kts
18-May-20 17:41 46.957227 -123.524921 278 2126ft 115kts
18-May-20 17:42 46.961373 -123.572077 278 2127ft 115kts
18-May-20 17:43 46.965429 -123.618472 278 2126ft 115kts
18-May-20 17:44 46.969374 -123.664183 277 2128ft 115kts
18-May-20 17:45 46.973199 -123.708850 277 2128ft 115kts
18-May-20 17:46 46.976992 -123.753951 277 2128ft 115kts
18-May-20 17:47 46.980780 -123.798844 277 2127ft 115kts
18-May-20 17:48 46.982902 -123.842746 268 2092ft 111kts
18-May-20 17:49 46.977806 -123.881289 259 1092ft 82kts
18-May-20 17:50 46.974400 -123.909944 265 229ft 69kts
18-May-20 17:51 46.971877 -123.931509 260 18ft 21kts
18-May-20 17:52 46.972729 -123.932502 81 17ft 19kts
18-May-20 17:53 46.973382 -123.930478 176 17ft 1kts
18-May-20 17:54 46.973378 -123.930477 176 17ft 0kts
18-May-20 17:55 46.973378 -123.930478 176 17ft 0kts
18-May-20 17:56 46.973378 -123.930478 176 17ft 0kts
18-May-20 17:57 46.973378 -123.930478 176 17ft 0kts
18-May-20 17:58 46.973378 -123.930478 176 17ft 0kts

Navigation Log

Ident Type
Flight plan parsing failed, navigation log unavailable